Lewisville, Texas
Current Conditions -  °F | °C
As of 7:53 PM on Wednesday 22 Oct 2014 (Local Time) from KDFW Reporting Station
Overcast Overcast  
Wind Chill: 74°   Ceiling: 18000
Heat Index: 74°   Visibility: 10mi
Dew Point: 56°   Wind: 7mph
Humidity: 53%   Direction: 110°ESE
Pressure: 30.09"   Gusts: NA
Location:  33.05°N, 96.99°W
Report Text: KDFW 230053Z 11006KT 10SM BKN180 OVC250 23/13 A3009 RMK AO2 SLP181 T02330133
Loading
Personal Weather Stations






























Interactive Weather Map New forecast layout! Learn more

10-Day Weather Forecast

Advertisements
Track Severe Weather on mobile